sensor_id;sensor_type;location;lat;lon;timestamp;temperature;humidity
81220;DHT22;70690;52.494;13.410;2023-07-20T00:01:26;18.40;72.90
81220;DHT22;70690;52.494;13.410;2023-07-20T00:03:52;18.50;72.60
81220;DHT22;70690;52.494;13.410;2023-07-20T00:06:25;18.50;72.10
81220;DHT22;70690;52.494;13.410;2023-07-20T00:08:53;18.60;72.10
81220;DHT22;70690;52.494;13.410;2023-07-20T00:11:19;18.50;71.20
81220;DHT22;70690;52.494;13.410;2023-07-20T00:13:45;18.50;72.20
81220;DHT22;70690;52.494;13.410;2023-07-20T00:16:11;18.40;71.90
81220;DHT22;70690;52.494;13.410;2023-07-20T00:18:37;18.50;71.70
81220;DHT22;70690;52.494;13.410;2023-07-20T00:21:02;18.40;72.20
81220;DHT22;70690;52.494;13.410;2023-07-20T00:23:29;18.40;72.60
81220;DHT22;70690;52.494;13.410;2023-07-20T00:25:55;18.50;72.00
81220;DHT22;70690;52.494;13.410;2023-07-20T00:28:21;18.40;72.40
81220;DHT22;70690;52.494;13.410;2023-07-20T00:30:46;18.30;73.10
81220;DHT22;70690;52.494;13.410;2023-07-20T00:33:12;18.40;72.10
81220;DHT22;70690;52.494;13.410;2023-07-20T00:35:39;18.40;72.20
81220;DHT22;70690;52.494;13.410;2023-07-20T00:38:05;18.40;72.60
81220;DHT22;70690;52.494;13.410;2023-07-20T00:40:38;18.20;73.10
81220;DHT22;70690;52.494;13.410;2023-07-20T00:43:04;18.40;72.70
81220;DHT22;70690;52.494;13.410;2023-07-20T00:45:31;18.30;73.30
81220;DHT22;70690;52.494;13.410;2023-07-20T00:47:57;18.20;73.30
81220;DHT22;70690;52.494;13.410;2023-07-20T00:50:24;18.10;73.60
81220;DHT22;70690;52.494;13.410;2023-07-20T00:52:50;18.00;74.10
81220;DHT22;70690;52.494;13.410;2023-07-20T00:55:16;18.00;74.10
81220;DHT22;70690;52.494;13.410;2023-07-20T00:57:41;18.10;73.30
81220;DHT22;70690;52.494;13.410;2023-07-20T01:00:07;17.90;73.80
81220;DHT22;70690;52.494;13.410;2023-07-20T01:02:52;17.80;74.30
81220;DHT22;70690;52.494;13.410;2023-07-20T01:05:20;17.80;74.60
81220;DHT22;70690;52.494;13.410;2023-07-20T01:07:58;17.80;74.40
81220;DHT22;70690;52.494;13.410;2023-07-20T01:10:44;17.90;73.80
81220;DHT22;70690;52.494;13.410;2023-07-20T01:13:14;18.00;74.10
81220;DHT22;70690;52.494;13.410;2023-07-20T01:15:40;17.90;74.00
81220;DHT22;70690;52.494;13.410;2023-07-20T01:18:06;17.90;73.70
81220;DHT22;70690;52.494;13.410;2023-07-20T01:20:33;17.90;73.80
81220;DHT22;70690;52.494;13.410;2023-07-20T01:31:41;17.80;73.80
81220;DHT22;70690;52.494;13.410;2023-07-20T01:34:09;17.80;74.30
81220;DHT22;70690;52.494;13.410;2023-07-20T01:36:37;17.80;73.70
81220;DHT22;70690;52.494;13.410;2023-07-20T01:39:04;17.90;73.50
81220;DHT22;70690;52.494;13.410;2023-07-20T01:41:31;17.90;73.40
81220;DHT22;70690;52.494;13.410;2023-07-20T01:43:58;17.70;73.60
81220;DHT22;70690;52.494;13.410;2023-07-20T01:46:25;17.70;74.70
81220;DHT22;70690;52.494;13.410;2023-07-20T01:48:51;17.70;74.00
81220;DHT22;70690;52.494;13.410;2023-07-20T01:51:17;17.80;73.20
81220;DHT22;70690;52.494;13.410;2023-07-20T01:53:43;17.80;73.80
81220;DHT22;70690;52.494;13.410;2023-07-20T01:56:09;17.80;73.50
81220;DHT22;70690;52.494;13.410;2023-07-20T01:58:37;17.80;73.40
81220;DHT22;70690;52.494;13.410;2023-07-20T02:01:03;18.00;73.10
81220;DHT22;70690;52.494;13.410;2023-07-20T02:03:29;17.90;73.10
81220;DHT22;70690;52.494;13.410;2023-07-20T02:05:55;17.70;73.20
81220;DHT22;70690;52.494;13.410;2023-07-20T02:08:22;17.90;73.30
81220;DHT22;70690;52.494;13.410;2023-07-20T02:10:49;17.90;72.80
81220;DHT22;70690;52.494;13.410;2023-07-20T02:13:15;17.80;73.10
81220;DHT22;70690;52.494;13.410;2023-07-20T02:15:41;17.90;73.10
81220;DHT22;70690;52.494;13.410;2023-07-20T02:18:08;17.90;72.60
81220;DHT22;70690;52.494;13.410;2023-07-20T02:20:34;17.80;72.30
81220;DHT22;70690;52.494;13.410;2023-07-20T02:23:00;17.70;72.80
81220;DHT22;70690;52.494;13.410;2023-07-20T02:25:26;17.50;73.50
81220;DHT22;70690;52.494;13.410;2023-07-20T02:27:52;17.60;73.20
81220;DHT22;70690;52.494;13.410;2023-07-20T02:30:18;17.60;73.10
81220;DHT22;70690;52.494;13.410;2023-07-20T02:32:43;17.50;73.40
81220;DHT22;70690;52.494;13.410;2023-07-20T02:35:23;17.60;73.40
81220;DHT22;70690;52.494;13.410;2023-07-20T02:37:49;17.70;73.10
81220;DHT22;70690;52.494;13.410;2023-07-20T02:40:14;17.90;72.50
81220;DHT22;70690;52.494;13.410;2023-07-20T02:42:40;17.80;72.70
81220;DHT22;70690;52.494;13.410;2023-07-20T02:45:06;17.70;72.90
81220;DHT22;70690;52.494;13.410;2023-07-20T02:47:32;17.60;72.70
81220;DHT22;70690;52.494;13.410;2023-07-20T02:49:58;17.50;73.40
81220;DHT22;70690;52.494;13.410;2023-07-20T02:52:24;17.60;73.50
81220;DHT22;70690;52.494;13.410;2023-07-20T02:54:51;17.70;73.10
81220;DHT22;70690;52.494;13.410;2023-07-20T02:57:17;17.50;73.10
81220;DHT22;70690;52.494;13.410;2023-07-20T02:59:42;17.70;72.90
81220;DHT22;70690;52.494;13.410;2023-07-20T03:02:08;17.60;73.10
81220;DHT22;70690;52.494;13.410;2023-07-20T03:04:37;17.60;72.90
81220;DHT22;70690;52.494;13.410;2023-07-20T03:07:04;17.40;73.10
81220;DHT22;70690;52.494;13.410;2023-07-20T03:09:30;17.40;73.20
81220;DHT22;70690;52.494;13.410;2023-07-20T03:11:56;17.50;72.80
81220;DHT22;70690;52.494;13.410;2023-07-20T03:14:22;17.40;72.80
81220;DHT22;70690;52.494;13.410;2023-07-20T03:16:49;17.30;73.40
81220;DHT22;70690;52.494;13.410;2023-07-20T03:19:15;17.30;73.40
81220;DHT22;70690;52.494;13.410;2023-07-20T03:21:40;17.30;73.40
81220;DHT22;70690;52.494;13.410;2023-07-20T03:24:07;17.40;73.40
81220;DHT22;70690;52.494;13.410;2023-07-20T03:26:34;17.30;73.00
81220;DHT22;70690;52.494;13.410;2023-07-20T03:29:00;17.40;73.00
81220;DHT22;70690;52.494;13.410;2023-07-20T03:31:26;17.40;73.50
81220;DHT22;70690;52.494;13.410;2023-07-20T03:33:52;17.30;73.40
81220;DHT22;70690;52.494;13.410;2023-07-20T03:36:17;17.40;73.40
81220;DHT22;70690;52.494;13.410;2023-07-20T03:38:43;17.70;71.90
81220;DHT22;70690;52.494;13.410;2023-07-20T03:41:09;17.60;72.10
81220;DHT22;70690;52.494;13.410;2023-07-20T03:43:37;17.60;71.90
81220;DHT22;70690;52.494;13.410;2023-07-20T03:46:03;17.60;72.60
81220;DHT22;70690;52.494;13.410;2023-07-20T03:48:33;17.60;72.30
81220;DHT22;70690;52.494;13.410;2023-07-20T03:50:58;17.30;73.90
81220;DHT22;70690;52.494;13.410;2023-07-20T03:53:25;17.40;73.30
81220;DHT22;70690;52.494;13.410;2023-07-20T03:55:52;17.50;73.40
81220;DHT22;70690;52.494;13.410;2023-07-20T03:58:19;17.40;73.50
81220;DHT22;70690;52.494;13.410;2023-07-20T04:00:46;17.50;73.20
81220;DHT22;70690;52.494;13.410;2023-07-20T04:03:12;17.70;72.70
81220;DHT22;70690;52.494;13.410;2023-07-20T04:05:38;17.60;72.20
81220;DHT22;70690;52.494;13.410;2023-07-20T04:08:04;17.50;72.90
81220;DHT22;70690;52.494;13.410;2023-07-20T04:10:30;17.50;72.80
81220;DHT22;70690;52.494;13.410;2023-07-20T04:12:56;17.50;72.50
81220;DHT22;70690;52.494;13.410;2023-07-20T04:15:21;17.40;73.00
81220;DHT22;70690;52.494;13.410;2023-07-20T04:17:47;17.30;73.10
81220;DHT22;70690;52.494;13.410;2023-07-20T04:20:13;17.40;72.60
81220;DHT22;70690;52.494;13.410;2023-07-20T04:22:39;17.60;72.00
81220;DHT22;70690;52.494;13.410;2023-07-20T04:25:05;17.50;72.10
81220;DHT22;70690;52.494;13.410;2023-07-20T04:27:31;17.40;72.30
81220;DHT22;70690;52.494;13.410;2023-07-20T04:29:58;17.40;72.70
81220;DHT22;70690;52.494;13.410;2023-07-20T04:32:27;17.40;72.70
81220;DHT22;70690;52.494;13.410;2023-07-20T04:34:53;17.80;71.40
81220;DHT22;70690;52.494;13.410;2023-07-20T04:37:19;17.70;70.80
81220;DHT22;70690;52.494;13.410;2023-07-20T04:39:45;17.40;72.30
81220;DHT22;70690;52.494;13.410;2023-07-20T04:42:11;17.50;72.50
81220;DHT22;70690;52.494;13.410;2023-07-20T04:44:36;17.50;72.30
81220;DHT22;70690;52.494;13.410;2023-07-20T04:47:02;17.70;71.70
81220;DHT22;70690;52.494;13.410;2023-07-20T04:49:28;17.80;70.90
81220;DHT22;70690;52.494;13.410;2023-07-20T04:51:54;17.80;71.00
81220;DHT22;70690;52.494;13.410;2023-07-20T04:54:20;17.90;71.00
81220;DHT22;70690;52.494;13.410;2023-07-20T04:56:46;17.70;71.40
81220;DHT22;70690;52.494;13.410;2023-07-20T04:59:11;17.60;71.70
81220;DHT22;70690;52.494;13.410;2023-07-20T05:01:37;17.50;72.10
81220;DHT22;70690;52.494;13.410;2023-07-20T05:04:03;17.70;71.40
81220;DHT22;70690;52.494;13.410;2023-07-20T05:06:29;17.90;70.70
81220;DHT22;70690;52.494;13.410;2023-07-20T05:08:55;17.90;70.60
81220;DHT22;70690;52.494;13.410;2023-07-20T05:11:20;18.00;69.20
81220;DHT22;70690;52.494;13.410;2023-07-20T05:13:46;18.10;69.00
81220;DHT22;70690;52.494;13.410;2023-07-20T05:16:15;17.90;69.70
81220;DHT22;70690;52.494;13.410;2023-07-20T05:18:41;17.90;70.00
81220;DHT22;70690;52.494;13.410;2023-07-20T05:21:07;17.90;69.70
81220;DHT22;70690;52.494;13.410;2023-07-20T05:23:33;17.80;69.80
81220;DHT22;70690;52.494;13.410;2023-07-20T05:25:59;17.70;70.50
81220;DHT22;70690;52.494;13.410;2023-07-20T05:28:25;17.80;69.90
81220;DHT22;70690;52.494;13.410;2023-07-20T05:30:52;17.80;69.00
81220;DHT22;70690;52.494;13.410;2023-07-20T05:33:19;17.70;68.60
81220;DHT22;70690;52.494;13.410;2023-07-20T05:35:45;17.80;69.10
81220;DHT22;70690;52.494;13.410;2023-07-20T05:38:10;18.00;69.00
81220;DHT22;70690;52.494;13.410;2023-07-20T05:41:17;18.00;68.80
81220;DHT22;70690;52.494;13.410;2023-07-20T05:43:42;18.10;68.20
81220;DHT22;70690;52.494;13.410;2023-07-20T05:46:08;18.00;68.10
81220;DHT22;70690;52.494;13.410;2023-07-20T05:48:35;18.00;67.90
81220;DHT22;70690;52.494;13.410;2023-07-20T05:51:01;17.90;68.50
81220;DHT22;70690;52.494;13.410;2023-07-20T05:53:27;18.00;68.60
81220;DHT22;70690;52.494;13.410;2023-07-20T05:55:54;18.10;68.00
81220;DHT22;70690;52.494;13.410;2023-07-20T05:58:20;18.30;67.40
81220;DHT22;70690;52.494;13.410;2023-07-20T06:00:49;18.20;67.60
81220;DHT22;70690;52.494;13.410;2023-07-20T06:03:15;18.20;68.00
81220;DHT22;70690;52.494;13.410;2023-07-20T06:05:45;18.40;67.10
81220;DHT22;70690;52.494;13.410;2023-07-20T06:08:10;18.40;67.10
81220;DHT22;70690;52.494;13.410;2023-07-20T06:10:36;18.50;67.30
81220;DHT22;70690;52.494;13.410;2023-07-20T06:13:02;18.50;66.50
81220;DHT22;70690;52.494;13.410;2023-07-20T06:15:34;18.60;66.70
81220;DHT22;70690;52.494;13.410;2023-07-20T06:18:04;18.70;66.00
81220;DHT22;70690;52.494;13.410;2023-07-20T06:20:30;18.30;67.20
81220;DHT22;70690;52.494;13.410;2023-07-20T06:22:56;18.30;66.90
81220;DHT22;70690;52.494;13.410;2023-07-20T06:25:21;18.20;67.80
81220;DHT22;70690;52.494;13.410;2023-07-20T06:27:49;18.00;68.60
81220;DHT22;70690;52.494;13.410;2023-07-20T06:30:16;18.00;69.70
81220;DHT22;70690;52.494;13.410;2023-07-20T06:32:42;18.10;68.60
81220;DHT22;70690;52.494;13.410;2023-07-20T06:35:08;18.20;67.00
81220;DHT22;70690;52.494;13.410;2023-07-20T06:37:35;18.20;66.70
81220;DHT22;70690;52.494;13.410;2023-07-20T06:40:02;18.20;67.10
81220;DHT22;70690;52.494;13.410;2023-07-20T06:42:29;18.30;66.90
81220;DHT22;70690;52.494;13.410;2023-07-20T06:44:56;18.40;66.50
81220;DHT22;70690;52.494;13.410;2023-07-20T06:47:21;18.60;65.60
81220;DHT22;70690;52.494;13.410;2023-07-20T06:49:47;18.70;63.80
81220;DHT22;70690;52.494;13.410;2023-07-20T06:52:13;18.70;63.80
81220;DHT22;70690;52.494;13.410;2023-07-20T06:54:39;18.60;63.30
81220;DHT22;70690;52.494;13.410;2023-07-20T06:57:05;18.50;63.80
81220;DHT22;70690;52.494;13.410;2023-07-20T06:59:31;18.60;63.30
81220;DHT22;70690;52.494;13.410;2023-07-20T07:01:57;18.50;62.60
81220;DHT22;70690;52.494;13.410;2023-07-20T07:04:22;18.60;63.00
81220;DHT22;70690;52.494;13.410;2023-07-20T07:06:48;18.70;62.80
81220;DHT22;70690;52.494;13.410;2023-07-20T07:09:14;19.00;61.70
81220;DHT22;70690;52.494;13.410;2023-07-20T07:11:40;18.80;62.00
81220;DHT22;70690;52.494;13.410;2023-07-20T07:14:05;18.70;61.90
81220;DHT22;70690;52.494;13.410;2023-07-20T07:16:31;18.60;62.50
81220;DHT22;70690;52.494;13.410;2023-07-20T07:18:57;18.50;62.60
81220;DHT22;70690;52.494;13.410;2023-07-20T07:21:23;18.90;62.00
81220;DHT22;70690;52.494;13.410;2023-07-20T07:23:51;19.10;62.10
81220;DHT22;70690;52.494;13.410;2023-07-20T07:26:19;19.30;60.10
81220;DHT22;70690;52.494;13.410;2023-07-20T07:28:44;19.20;59.10
81220;DHT22;70690;52.494;13.410;2023-07-20T07:31:10;19.40;59.10
81220;DHT22;70690;52.494;13.410;2023-07-20T07:33:36;19.60;57.60
81220;DHT22;70690;52.494;13.410;2023-07-20T07:36:03;19.80;56.20
81220;DHT22;70690;52.494;13.410;2023-07-20T07:38:29;19.90;56.30
81220;DHT22;70690;52.494;13.410;2023-07-20T07:40:54;20.00;55.90
81220;DHT22;70690;52.494;13.410;2023-07-20T07:46:22;20.00;55.70
81220;DHT22;70690;52.494;13.410;2023-07-20T07:48:48;20.20;55.40
81220;DHT22;70690;52.494;13.410;2023-07-20T07:51:14;20.30;55.40
81220;DHT22;70690;52.494;13.410;2023-07-20T07:53:40;20.50;54.70
81220;DHT22;70690;52.494;13.410;2023-07-20T07:56:07;20.60;54.30
81220;DHT22;70690;52.494;13.410;2023-07-20T07:58:33;20.60;53.80
81220;DHT22;70690;52.494;13.410;2023-07-20T08:01:00;20.70;53.00
81220;DHT22;70690;52.494;13.410;2023-07-20T08:03:25;20.70;53.80
81220;DHT22;70690;52.494;13.410;2023-07-20T08:05:54;21.00;53.50
81220;DHT22;70690;52.494;13.410;2023-07-20T08:08:21;20.70;51.20
81220;DHT22;70690;52.494;13.410;2023-07-20T08:10:47;20.70;51.70
81220;DHT22;70690;52.494;13.410;2023-07-20T08:13:13;20.80;51.50
81220;DHT22;70690;52.494;13.410;2023-07-20T08:15:39;20.80;51.80
81220;DHT22;70690;52.494;13.410;2023-07-20T08:18:06;20.90;51.00
81220;DHT22;70690;52.494;13.410;2023-07-20T08:20:33;20.70;51.80
81220;DHT22;70690;52.494;13.410;2023-07-20T08:23:01;20.70;52.30
81220;DHT22;70690;52.494;13.410;2023-07-20T08:25:27;20.70;51.20
81220;DHT22;70690;52.494;13.410;2023-07-20T08:27:52;20.20;52.70
81220;DHT22;70690;52.494;13.410;2023-07-20T08:30:21;20.20;53.40
81220;DHT22;70690;52.494;13.410;2023-07-20T08:32:48;20.00;53.50
81220;DHT22;70690;52.494;13.410;2023-07-20T08:35:14;20.10;55.00
81220;DHT22;70690;52.494;13.410;2023-07-20T08:37:41;20.50;54.50
81220;DHT22;70690;52.494;13.410;2023-07-20T08:40:07;20.70;53.00
81220;DHT22;70690;52.494;13.410;2023-07-20T08:42:34;20.60;53.40
81220;DHT22;70690;52.494;13.410;2023-07-20T08:45:04;20.80;52.20
81220;DHT22;70690;52.494;13.410;2023-07-20T08:47:31;20.70;52.00
81220;DHT22;70690;52.494;13.410;2023-07-20T08:49:58;20.70;52.90
81220;DHT22;70690;52.494;13.410;2023-07-20T08:52:24;20.50;52.50
81220;DHT22;70690;52.494;13.410;2023-07-20T08:54:50;20.70;52.60
81220;DHT22;70690;52.494;13.410;2023-07-20T08:57:18;20.70;52.80
81220;DHT22;70690;52.494;13.410;2023-07-20T08:59:49;20.60;52.20
81220;DHT22;70690;52.494;13.410;2023-07-20T09:02:24;20.60;52.70
81220;DHT22;70690;52.494;13.410;2023-07-20T09:04:50;20.80;52.40
81220;DHT22;70690;52.494;13.410;2023-07-20T09:07:16;20.70;52.20
81220;DHT22;70690;52.494;13.410;2023-07-20T09:09:43;20.70;51.80
81220;DHT22;70690;52.494;13.410;2023-07-20T09:12:17;20.80;50.40
81220;DHT22;70690;52.494;13.410;2023-07-20T09:14:44;20.90;49.80
81220;DHT22;70690;52.494;13.410;2023-07-20T09:17:13;21.00;50.00
81220;DHT22;70690;52.494;13.410;2023-07-20T09:19:45;21.00;50.40
81220;DHT22;70690;52.494;13.410;2023-07-20T09:22:11;21.20;50.40
81220;DHT22;70690;52.494;13.410;2023-07-20T09:24:37;21.50;48.80
81220;DHT22;70690;52.494;13.410;2023-07-20T09:27:03;21.30;49.40
81220;DHT22;70690;52.494;13.410;2023-07-20T09:29:29;21.50;49.20
81220;DHT22;70690;52.494;13.410;2023-07-20T09:32:04;21.70;48.50
81220;DHT22;70690;52.494;13.410;2023-07-20T09:34:30;21.70;48.90
81220;DHT22;70690;52.494;13.410;2023-07-20T09:40:08;22.10;47.30
81220;DHT22;70690;52.494;13.410;2023-07-20T09:42:35;21.80;47.50
81220;DHT22;70690;52.494;13.410;2023-07-20T09:45:02;21.90;47.70
81220;DHT22;70690;52.494;13.410;2023-07-20T09:47:28;21.80;48.20
81220;DHT22;70690;52.494;13.410;2023-07-20T09:49:58;22.00;47.60
81220;DHT22;70690;52.494;13.410;2023-07-20T09:52:26;21.80;48.30
81220;DHT22;70690;52.494;13.410;2023-07-20T09:54:52;21.60;48.00
81220;DHT22;70690;52.494;13.410;2023-07-20T09:57:21;21.50;49.00
81220;DHT22;70690;52.494;13.410;2023-07-20T10:00:04;21.30;49.50
81220;DHT22;70690;52.494;13.410;2023-07-20T10:02:43;20.80;50.60
81220;DHT22;70690;52.494;13.410;2023-07-20T10:05:15;20.70;50.80
81220;DHT22;70690;52.494;13.410;2023-07-20T10:07:48;20.50;51.50
81220;DHT22;70690;52.494;13.410;2023-07-20T10:10:16;20.30;51.90
81220;DHT22;70690;52.494;13.410;2023-07-20T10:12:47;20.20;52.30
81220;DHT22;70690;52.494;13.410;2023-07-20T10:15:23;20.30;52.30
81220;DHT22;70690;52.494;13.410;2023-07-20T10:17:59;20.50;51.80
81220;DHT22;70690;52.494;13.410;2023-07-20T10:20:28;20.50;52.00
81220;DHT22;70690;52.494;13.410;2023-07-20T10:22:55;20.80;52.30
81220;DHT22;70690;52.494;13.410;2023-07-20T10:25:23;21.10;51.80
81220;DHT22;70690;52.494;13.410;2023-07-20T10:27:49;21.30;51.50
81220;DHT22;70690;52.494;13.410;2023-07-20T10:30:16;21.40;50.70
81220;DHT22;70690;52.494;13.410;2023-07-20T10:32:43;21.40;50.70
81220;DHT22;70690;52.494;13.410;2023-07-20T10:35:16;21.20;51.20
81220;DHT22;70690;52.494;13.410;2023-07-20T10:45:48;20.60;51.20
81220;DHT22;70690;52.494;13.410;2023-07-20T10:48:24;20.30;52.00
81220;DHT22;70690;52.494;13.410;2023-07-20T10:51:12;20.50;52.40
81220;DHT22;70690;52.494;13.410;2023-07-20T10:53:41;20.70;52.80
81220;DHT22;70690;52.494;13.410;2023-07-20T10:56:20;20.50;54.20
81220;DHT22;70690;52.494;13.410;2023-07-20T10:58:46;20.30;55.10
81220;DHT22;70690;52.494;13.410;2023-07-20T11:01:21;20.50;54.70
81220;DHT22;70690;52.494;13.410;2023-07-20T11:03:50;20.30;54.50
81220;DHT22;70690;52.494;13.410;2023-07-20T11:11:39;20.70;53.00
81220;DHT22;70690;52.494;13.410;2023-07-20T11:14:11;20.60;53.10
81220;DHT22;70690;52.494;13.410;2023-07-20T11:16:46;20.60;53.20
81220;DHT22;70690;52.494;13.410;2023-07-20T11:19:23;20.70;54.10
81220;DHT22;70690;52.494;13.410;2023-07-20T11:21:54;20.90;53.20
81220;DHT22;70690;52.494;13.410;2023-07-20T11:24:20;21.30;51.90
81220;DHT22;70690;52.494;13.410;2023-07-20T11:26:49;21.30;51.10
81220;DHT22;70690;52.494;13.410;2023-07-20T11:29:16;21.30;51.50
81220;DHT22;70690;52.494;13.410;2023-07-20T11:31:43;21.40;51.00
81220;DHT22;70690;52.494;13.410;2023-07-20T11:34:15;21.30;51.20
81220;DHT22;70690;52.494;13.410;2023-07-20T11:36:42;21.20;51.50
81220;DHT22;70690;52.494;13.410;2023-07-20T11:39:09;21.20;51.60
81220;DHT22;70690;52.494;13.410;2023-07-20T11:41:35;21.30;51.20
81220;DHT22;70690;52.494;13.410;2023-07-20T11:44:02;21.30;51.00
81220;DHT22;70690;52.494;13.410;2023-07-20T11:46:30;21.70;50.90
81220;DHT22;70690;52.494;13.410;2023-07-20T11:48:59;21.90;48.90
81220;DHT22;70690;52.494;13.410;2023-07-20T11:51:29;22.00;50.10
81220;DHT22;70690;52.494;13.410;2023-07-20T11:53:56;22.20;48.40
81220;DHT22;70690;52.494;13.410;2023-07-20T11:56:24;22.10;48.00
81220;DHT22;70690;52.494;13.410;2023-07-20T11:58:50;22.40;48.20
81220;DHT22;70690;52.494;13.410;2023-07-20T12:01:17;22.20;47.40
81220;DHT22;70690;52.494;13.410;2023-07-20T12:04:18;22.70;46.00
81220;DHT22;70690;52.494;13.410;2023-07-20T12:06:45;22.70;45.90
81220;DHT22;70690;52.494;13.410;2023-07-20T12:09:16;22.60;46.20
81220;DHT22;70690;52.494;13.410;2023-07-20T12:11:43;22.50;46.70
81220;DHT22;70690;52.494;13.410;2023-07-20T12:14:10;22.40;47.00
81220;DHT22;70690;52.494;13.410;2023-07-20T12:16:37;22.40;47.00
81220;DHT22;70690;52.494;13.410;2023-07-20T12:19:11;22.10;47.70
81220;DHT22;70690;52.494;13.410;2023-07-20T12:21:39;21.90;48.70
81220;DHT22;70690;52.494;13.410;2023-07-20T12:24:06;21.70;49.30
81220;DHT22;70690;52.494;13.410;2023-07-20T12:26:37;21.80;49.50
81220;DHT22;70690;52.494;13.410;2023-07-20T12:29:03;21.60;47.70
81220;DHT22;70690;52.494;13.410;2023-07-20T12:31:29;21.50;48.30
81220;DHT22;70690;52.494;13.410;2023-07-20T12:33:57;21.60;47.40
81220;DHT22;70690;52.494;13.410;2023-07-20T12:36:24;21.60;47.70
81220;DHT22;70690;52.494;13.410;2023-07-20T12:38:50;21.80;47.50
81220;DHT22;70690;52.494;13.410;2023-07-20T12:41:16;22.10;46.70
81220;DHT22;70690;52.494;13.410;2023-07-20T12:43:42;22.20;46.60
81220;DHT22;70690;52.494;13.410;2023-07-20T12:46:09;22.00;44.10
81220;DHT22;70690;52.494;13.410;2023-07-20T12:48:36;22.60;44.30
81220;DHT22;70690;52.494;13.410;2023-07-20T12:51:06;23.30;42.00
81220;DHT22;70690;52.494;13.410;2023-07-20T12:53:32;23.50;41.20
81220;DHT22;70690;52.494;13.410;2023-07-20T12:55:59;24.10;40.40
81220;DHT22;70690;52.494;13.410;2023-07-20T12:58:25;24.30;39.10
81220;DHT22;70690;52.494;13.410;2023-07-20T13:00:50;25.30;37.00
81220;DHT22;70690;52.494;13.410;2023-07-20T13:03:16;25.70;36.00
81220;DHT22;70690;52.494;13.410;2023-07-20T13:05:44;25.30;34.90
81220;DHT22;70690;52.494;13.410;2023-07-20T13:08:10;25.10;34.60
81220;DHT22;70690;52.494;13.410;2023-07-20T13:10:36;24.70;36.40
81220;DHT22;70690;52.494;13.410;2023-07-20T13:13:02;24.30;33.40
81220;DHT22;70690;52.494;13.410;2023-07-20T13:15:32;24.10;34.20
81220;DHT22;70690;52.494;13.410;2023-07-20T13:17:58;24.00;34.30
81220;DHT22;70690;52.494;13.410;2023-07-20T13:20:25;23.80;34.80
81220;DHT22;70690;52.494;13.410;2023-07-20T13:22:51;23.70;34.90
81220;DHT22;70690;52.494;13.410;2023-07-20T13:25:17;23.40;34.90
81220;DHT22;70690;52.494;13.410;2023-07-20T13:27:43;23.30;35.10
81220;DHT22;70690;52.494;13.410;2023-07-20T13:30:09;23.40;34.80
81220;DHT22;70690;52.494;13.410;2023-07-20T13:32:39;23.40;35.60
81220;DHT22;70690;52.494;13.410;2023-07-20T13:35:05;23.40;35.30
81220;DHT22;70690;52.494;13.410;2023-07-20T13:37:30;23.50;34.70
81220;DHT22;70690;52.494;13.410;2023-07-20T13:39:56;23.50;34.50
81220;DHT22;70690;52.494;13.410;2023-07-20T13:42:22;23.70;34.50
81220;DHT22;70690;52.494;13.410;2023-07-20T13:44:48;23.70;33.10
81220;DHT22;70690;52.494;13.410;2023-07-20T13:47:14;24.00;33.20
81220;DHT22;70690;52.494;13.410;2023-07-20T13:49:40;24.30;33.70
81220;DHT22;70690;52.494;13.410;2023-07-20T13:52:06;24.30;32.80
81220;DHT22;70690;52.494;13.410;2023-07-20T13:54:32;24.40;33.70
81220;DHT22;70690;52.494;13.410;2023-07-20T13:57:48;24.30;33.40
81220;DHT22;70690;52.494;13.410;2023-07-20T14:00:13;24.50;33.10
81220;DHT22;70690;52.494;13.410;2023-07-20T14:02:39;24.50;34.20
81220;DHT22;70690;52.494;13.410;2023-07-20T14:05:05;24.60;34.00
81220;DHT22;70690;52.494;13.410;2023-07-20T14:07:31;24.50;34.00
81220;DHT22;70690;52.494;13.410;2023-07-20T14:09:57;24.30;34.10
81220;DHT22;70690;52.494;13.410;2023-07-20T14:12:23;24.50;34.80
81220;DHT22;70690;52.494;13.410;2023-07-20T14:14:48;24.80;34.00
81220;DHT22;70690;52.494;13.410;2023-07-20T14:17:14;25.10;34.20
81220;DHT22;70690;52.494;13.410;2023-07-20T14:19:40;25.40;33.70
81220;DHT22;70690;52.494;13.410;2023-07-20T14:22:06;25.20;32.10
81220;DHT22;70690;52.494;13.410;2023-07-20T14:24:31;24.90;32.30
81220;DHT22;70690;52.494;13.410;2023-07-20T14:26:57;25.20;32.00
81220;DHT22;70690;52.494;13.410;2023-07-20T14:29:23;25.10;30.80
81220;DHT22;70690;52.494;13.410;2023-07-20T14:32:03;25.40;30.20
81220;DHT22;70690;52.494;13.410;2023-07-20T14:34:36;25.80;30.00
81220;DHT22;70690;52.494;13.410;2023-07-20T14:37:03;26.00;30.10
81220;DHT22;70690;52.494;13.410;2023-07-20T14:39:29;26.30;30.00
81220;DHT22;70690;52.494;13.410;2023-07-20T14:41:55;26.40;29.80
81220;DHT22;70690;52.494;13.410;2023-07-20T14:44:21;26.30;30.30
81220;DHT22;70690;52.494;13.410;2023-07-20T14:46:47;26.00;30.00
81220;DHT22;70690;52.494;13.410;2023-07-20T14:49:12;25.80;29.80
81220;DHT22;70690;52.494;13.410;2023-07-20T14:51:38;25.70;30.20
81220;DHT22;70690;52.494;13.410;2023-07-20T14:54:09;25.20;30.80
81220;DHT22;70690;52.494;13.410;2023-07-20T14:56:38;25.30;31.10
81220;DHT22;70690;52.494;13.410;2023-07-20T14:59:04;25.80;29.90
81220;DHT22;70690;52.494;13.410;2023-07-20T15:01:31;26.20;30.00
81220;DHT22;70690;52.494;13.410;2023-07-20T15:03:57;26.60;29.40
81220;DHT22;70690;52.494;13.410;2023-07-20T15:06:23;27.20;29.00
81220;DHT22;70690;52.494;13.410;2023-07-20T15:08:49;27.30;29.40
81220;DHT22;70690;52.494;13.410;2023-07-20T15:11:14;27.10;29.20
81220;DHT22;70690;52.494;13.410;2023-07-20T15:13:40;26.90;29.10
81220;DHT22;70690;52.494;13.410;2023-07-20T15:16:08;26.60;29.10
81220;DHT22;70690;52.494;13.410;2023-07-20T15:18:35;26.10;29.80
81220;DHT22;70690;52.494;13.410;2023-07-20T15:21:01;25.90;30.50
81220;DHT22;70690;52.494;13.410;2023-07-20T15:23:26;25.70;29.90
81220;DHT22;70690;52.494;13.410;2023-07-20T15:25:52;25.70;30.80
81220;DHT22;70690;52.494;13.410;2023-07-20T15:28:18;25.30;30.90
81220;DHT22;70690;52.494;13.410;2023-07-20T15:30:44;25.10;31.50
81220;DHT22;70690;52.494;13.410;2023-07-20T15:33:09;25.10;31.20
81220;DHT22;70690;52.494;13.410;2023-07-20T15:35:36;25.00;31.00
81220;DHT22;70690;52.494;13.410;2023-07-20T15:38:02;24.80;30.70
81220;DHT22;70690;52.494;13.410;2023-07-20T15:40:27;24.60;31.00
81220;DHT22;70690;52.494;13.410;2023-07-20T15:42:53;24.50;30.90
81220;DHT22;70690;52.494;13.410;2023-07-20T15:45:20;24.20;32.00